Time;durP1;ratioP1;P1;durP2;ratioP2;P2;SDS_P1;SDS_P2;PMS_P1;PMS_P2;Temp;Humidity;BMP_temperature;BMP_pressure;BME280_temperature;BME280_humidity;BME280_pressure;Samples;Min_cycle;Max_cycle;Signal;HPM_P1;HPM_P2
2021/07/29 00:00:01;;;;;;;10.20;3.67;;;25.00;99.90;;;;;;5039487;28;20203;-75
2021/07/29 00:02:27;;;;;;;11.88;3.58;;;25.10;99.90;;;;;;5037226;28;20188;-75
2021/07/29 00:04:55;;;;;;;9.50;2.90;;;24.90;99.90;;;;;;5036506;28;20210;-73
2021/07/29 00:07:21;;;;;;;9.60;3.17;;;24.90;99.90;;;;;;5036397;28;20243;-73
2021/07/29 00:09:47;;;;;;;9.70;3.50;;;24.90;99.90;;;;;;5037306;28;20660;-75
2021/07/29 00:12:14;;;;;;;8.10;3.22;;;24.80;99.90;;;;;;5031674;28;20187;-73
2021/07/29 00:14:48;;;;;;;11.30;3.10;;;24.80;99.90;;;;;;5037972;28;20191;-76
2021/07/29 00:17:28;;;;;;;14.38;3.78;;;24.90;99.90;;;;;;5031589;28;20192;-75
2021/07/29 00:19:54;;;;;;;9.13;3.55;;;24.80;99.90;;;;;;5040092;28;20282;-74
2021/07/29 00:22:20;;;;;;;11.15;3.30;;;24.70;99.90;;;;;;5037763;28;20187;-75
2021/07/29 00:24:47;;;;;;;7.28;3.38;;;24.70;99.90;;;;;;5054116;28;20195;-73
2021/07/29 00:27:13;;;;;;;5.28;3.22;;;24.70;99.90;;;;;;5040303;28;20192;-75
2021/07/29 00:29:39;;;;;;;9.45;3.40;;;24.70;99.90;;;;;;5043254;28;20215;-73
2021/07/29 00:32:06;;;;;;;7.07;3.40;;;24.70;99.90;;;;;;5039827;28;20274;-74
2021/07/29 00:34:32;;;;;;;16.10;3.80;;;24.70;99.90;;;;;;5025225;28;20191;-75
2021/07/29 00:36:59;;;;;;;12.05;3.80;;;24.60;99.90;;;;;;5055456;28;20204;-74
2021/07/29 00:39:27;;;;;;;10.88;3.22;;;24.60;99.90;;;;;;5039374;28;20245;-74
2021/07/29 00:41:53;;;;;;;10.97;3.10;;;24.50;99.90;;;;;;5043111;28;20276;-74
2021/07/29 00:44:19;;;;;;;11.33;3.70;;;24.50;99.90;;;;;;5038564;28;20229;-75
2021/07/29 00:46:46;;;;;;;12.80;3.67;;;24.50;99.90;;;;;;5060626;28;20219;-75
2021/07/29 00:49:13;;;;;;;13.17;3.50;;;24.50;99.90;;;;;;5043580;28;20194;-75
2021/07/29 00:51:40;;;;;;;9.73;3.40;;;24.50;99.90;;;;;;5042000;28;20311;-76
2021/07/29 00:54:07;;;;;;;12.73;3.93;;;24.40;99.90;;;;;;5041020;28;20273;-73
2021/07/29 00:56:35;;;;;;;8.37;3.40;;;24.40;99.90;;;;;;5042984;28;20201;-73
2021/07/29 00:59:01;;;;;;;11.45;3.75;;;24.40;99.90;;;;;;5044725;28;20199;-75
2021/07/29 01:01:28;;;;;;;16.57;3.87;;;24.40;99.90;;;;;;5044352;28;20333;-75
2021/07/29 01:03:54;;;;;;;14.20;4.17;;;24.40;99.90;;;;;;5041184;28;20184;-74
2021/07/29 01:06:21;;;;;;;11.13;3.63;;;24.40;99.90;;;;;;5044345;28;20207;-72
2021/07/29 01:09:10;;;;;;;9.63;4.07;;;24.40;99.90;;;;;;5025620;28;20192;-74
2021/07/29 01:11:43;;;;;;;8.60;3.40;;;24.40;99.90;;;;;;5043790;28;20183;-74
2021/07/29 01:14:12;;;;;;;13.23;3.70;;;24.50;99.90;;;;;;5033473;28;20629;-77
2021/07/29 01:16:39;;;;;;;8.50;3.83;;;24.50;99.90;;;;;;5029011;28;20191;-75
2021/07/29 01:19:08;;;;;;;11.43;3.53;;;24.50;99.90;;;;;;5024745;28;20233;-73
2021/07/29 01:21:36;;;;;;;8.40;3.10;;;24.40;99.90;;;;;;5042634;28;20270;-74
2021/07/29 01:24:03;;;;;;;8.27;3.13;;;24.40;99.90;;;;;;5025690;28;20188;-74
2021/07/29 01:26:30;;;;;;;7.70;3.40;;;24.50;99.90;;;;;;5026342;28;20949;-74
2021/07/29 01:29:00;;;;;;;12.73;3.97;;;24.50;99.90;;;;;;5044488;28;20194;-75
2021/07/29 01:31:27;;;;;;;12.33;3.60;;;24.40;99.90;;;;;;5044634;28;20961;-74
2021/07/29 01:33:58;;;;;;;16.77;4.18;;;24.40;99.90;;;;;;5043484;28;20196;-73
2021/07/29 01:36:25;;;;;;;8.07;2.97;;;24.30;99.90;;;;;;5043564;28;20199;-74
2021/07/29 01:38:51;;;;;;;6.20;3.35;;;24.30;99.90;;;;;;5058423;28;20200;-73
2021/07/29 01:41:18;;;;;;;6.70;3.00;;;24.30;99.90;;;;;;5029460;28;20204;-76
2021/07/29 01:43:44;;;;;;;14.43;3.63;;;24.40;99.90;;;;;;5041370;28;20198;-74
2021/07/29 01:46:10;;;;;;;11.00;3.33;;;24.40;99.90;;;;;;5044294;28;20292;-75
2021/07/29 01:48:36;;;;;;;17.50;3.53;;;24.40;99.90;;;;;;5024544;28;20195;-75
2021/07/29 01:51:03;;;;;;;12.77;4.10;;;24.40;99.90;;;;;;5044928;28;20196;-74
2021/07/29 01:53:29;;;;;;;9.80;3.30;;;24.30;99.90;;;;;;5059411;28;20194;-76
2021/07/29 01:55:55;;;;;;;11.67;3.43;;;24.30;99.90;;;;;;5044166;28;20242;-75
2021/07/29 01:58:23;;;;;;;6.50;3.10;;;24.30;99.90;;;;;;5040080;28;20196;-73
2021/07/29 02:00:53;;;;;;;7.47;3.10;;;24.20;99.90;;;;;;5044544;28;20283;-75
2021/07/29 02:03:19;;;;;;;9.68;3.35;;;24.30;99.90;;;;;;5061399;28;20183;-74
2021/07/29 02:05:45;;;;;;;7.37;3.20;;;24.20;99.90;;;;;;5045173;28;20559;-75
2021/07/29 02:08:12;;;;;;;7.87;3.20;;;24.20;99.90;;;;;;5044644;28;20187;-76
2021/07/29 02:10:38;;;;;;;14.23;3.17;;;24.10;99.90;;;;;;5044393;28;20267;-74
2021/07/29 02:13:04;;;;;;;9.35;3.17;;;24.10;99.90;;;;;;5027275;28;20198;-74
2021/07/29 02:15:30;;;;;;;6.20;2.90;;;24.00;99.90;;;;;;5046658;28;20222;-74
2021/07/29 02:17:59;;;;;;;11.30;3.60;;;24.00;99.90;;;;;;5030832;28;20537;-74
2021/07/29 02:20:28;;;;;;;12.45;3.05;;;23.90;99.90;;;;;;5044271;28;20564;-75
2021/07/29 02:22:55;;;;;;;7.43;3.03;;;23.90;99.90;;;;;;5043491;28;20925;-72
2021/07/29 02:25:21;;;;;;;9.00;3.07;;;23.90;99.90;;;;;;5044291;28;20187;-75
2021/07/29 02:27:48;;;;;;;11.20;3.20;;;23.90;99.90;;;;;;5046108;28;20194;-74
2021/07/29 02:30:14;;;;;;;12.00;3.30;;;23.90;99.90;;;;;;5028987;28;20183;-76
2021/07/29 02:32:41;;;;;;;9.00;3.10;;;23.80;99.90;;;;;;5045153;28;20265;-74
2021/07/29 02:35:08;;;;;;;8.03;3.40;;;23.80;99.90;;;;;;5044853;28;20282;-75
2021/07/29 02:37:35;;;;;;;9.67;3.27;;;23.80;99.90;;;;;;5046783;28;20187;-74
2021/07/29 02:40:01;;;;;;;8.20;3.43;;;23.80;99.90;;;;;;5046309;28;20188;-75
2021/07/29 02:42:27;;;;;;;4.90;2.80;;;23.80;99.90;;;;;;5046558;28;20183;-74
2021/07/29 02:44:54;;;;;;;14.63;3.20;;;23.80;99.90;;;;;;5044255;28;20227;-74
2021/07/29 02:47:20;;;;;;;10.87;3.10;;;23.80;99.90;;;;;;5050059;28;20694;-76
2021/07/29 02:49:46;;;;;;;9.40;3.28;;;23.80;99.90;;;;;;5026916;28;20187;-75
2021/07/29 02:52:13;;;;;;;8.83;2.87;;;23.80;99.90;;;;;;5042053;28;20652;-76
2021/07/29 02:54:40;;;;;;;10.97;2.90;;;23.80;99.90;;;;;;5043451;28;20673;-76
2021/07/29 02:57:07;;;;;;;14.07;3.58;;;23.80;99.90;;;;;;5025643;28;20192;-74
2021/07/29 02:59:33;;;;;;;12.17;2.73;;;23.80;99.90;;;;;;5045217;28;20199;-76
2021/07/29 03:02:01;;;;;;;10.87;2.73;;;23.80;99.90;;;;;;5043848;28;20215;-76
2021/07/29 03:04:28;;;;;;;7.53;2.73;;;23.80;99.90;;;;;;5043602;28;20901;-73
2021/07/29 03:06:58;;;;;;;10.40;2.93;;;23.90;99.90;;;;;;5058974;28;20198;-73
2021/07/29 03:09:24;;;;;;;12.93;3.07;;;23.80;99.90;;;;;;5044578;28;20196;-75
2021/07/29 03:11:51;;;;;;;12.10;3.50;;;23.80;99.90;;;;;;5024274;28;20191;-74
2021/07/29 03:14:19;;;;;;;13.47;3.10;;;23.80;99.90;;;;;;5042868;28;20190;-74
2021/07/29 03:16:45;;;;;;;11.80;3.37;;;23.90;99.90;;;;;;5042771;28;20187;-75
2021/07/29 03:19:11;;;;;;;10.48;2.80;;;23.90;99.80;;;;;;5046074;28;20261;-75
2021/07/29 03:21:38;;;;;;;11.37;3.00;;;23.90;99.60;;;;;;5042397;28;20816;-74
2021/07/29 03:24:04;;;;;;;14.30;3.10;;;23.90;99.50;;;;;;5026315;28;20190;-73
2021/07/29 03:26:31;;;;;;;14.97;3.07;;;24.00;99.20;;;;;;5044007;28;20793;-75
2021/07/29 03:28:58;;;;;;;5.03;2.90;;;24.00;99.00;;;;;;5043988;28;20207;-73
2021/07/29 03:31:24;;;;;;;16.37;3.27;;;24.00;98.60;;;;;;5039497;28;20198;-75
2021/07/29 03:33:51;;;;;;;12.47;2.60;;;24.00;98.00;;;;;;5046032;28;20769;-75
2021/07/29 03:36:17;;;;;;;11.63;2.93;;;24.00;97.90;;;;;;5029244;28;20211;-75
2021/07/29 03:38:43;;;;;;;4.83;2.80;;;24.00;97.50;;;;;;5041961;28;20202;-75
2021/07/29 03:41:13;;;;;;;5.87;2.63;;;24.00;97.00;;;;;;5025817;28;20200;-74
2021/07/29 03:43:39;;;;;;;9.37;2.77;;;24.10;96.50;;;;;;5038043;28;20198;-73
2021/07/29 03:46:05;;;;;;;12.03;3.30;;;24.10;96.20;;;;;;5025128;28;20266;-74
2021/07/29 03:48:31;;;;;;;7.60;3.07;;;24.10;95.20;;;;;;5041776;28;20287;-74
2021/07/29 03:50:58;;;;;;;7.13;2.63;;;24.10;94.60;;;;;;5054202;28;20944;-76
2021/07/29 03:53:24;;;;;;;6.17;2.93;;;24.10;94.00;;;;;;5038498;28;20200;-73
2021/07/29 03:55:50;;;;;;;8.63;3.00;;;24.20;94.00;;;;;;5038905;28;20191;-75
2021/07/29 03:58:16;;;;;;;7.70;2.65;;;24.20;93.30;;;;;;5038278;28;20198;-73
2021/07/29 04:00:42;;;;;;;6.90;2.55;;;24.20;93.20;;;;;;5027509;28;20593;-75
2021/07/29 04:03:09;;;;;;;12.80;2.93;;;24.30;93.00;;;;;;5039144;28;20198;-74
2021/07/29 04:05:37;;;;;;;18.73;3.10;;;24.30;92.70;;;;;;5042955;28;20183;-74
2021/07/29 04:08:05;;;;;;;10.23;3.00;;;24.30;92.40;;;;;;5044456;28;20191;-73
2021/07/29 04:10:31;;;;;;;15.63;3.40;;;24.30;92.20;;;;;;5041786;28;20547;-74
2021/07/29 04:12:58;;;;;;;12.57;3.00;;;24.40;92.40;;;;;;5039801;28;20192;-74
2021/07/29 04:15:24;;;;;;;7.32;2.95;;;24.40;92.70;;;;;;5029739;28;20826;-76
2021/07/29 04:17:50;;;;;;;12.27;3.20;;;24.50;93.10;;;;;;5051400;28;20199;-74
2021/07/29 04:20:17;;;;;;;9.90;2.60;;;24.50;93.40;;;;;;5040852;28;20197;-74
2021/07/29 04:22:44;;;;;;;6.25;2.85;;;24.50;93.30;;;;;;5044904;28;20552;-72
2021/07/29 04:25:10;;;;;;;11.30;2.88;;;24.60;93.80;;;;;;5055639;28;20204;-74
2021/07/29 04:27:37;;;;;;;14.00;2.83;;;24.60;93.60;;;;;;5041445;28;20184;-74
2021/07/29 04:30:03;;;;;;;6.93;2.70;;;24.60;93.50;;;;;;5045896;28;20179;-74
2021/07/29 04:32:35;;;;;;;9.32;2.70;;;24.60;93.40;;;;;;5044185;28;20240;-73
2021/07/29 04:35:03;;;;;;;6.75;2.70;;;24.70;93.80;;;;;;5042131;28;20187;-74
2021/07/29 04:37:30;;;;;;;8.38;3.10;;;24.70;93.90;;;;;;5044807;28;20199;-74
2021/07/29 04:39:56;;;;;;;17.52;2.92;;;24.80;93.50;;;;;;5044800;28;20203;-74
2021/07/29 04:42:22;;;;;;;8.32;3.05;;;24.80;93.00;;;;;;5032037;28;20215;-75
2021/07/29 04:44:49;;;;;;;10.07;2.95;;;24.90;92.40;;;;;;5024792;28;20279;-73
2021/07/29 04:47:16;;;;;;;6.18;3.00;;;24.90;92.70;;;;;;5044730;28;20203;-76
2021/07/29 04:49:43;;;;;;;16.80;2.70;;;24.90;93.20;;;;;;5042390;28;20180;-73
2021/07/29 04:52:11;;;;;;;8.85;2.35;;;25.10;93.40;;;;;;5044937;28;20222;-74
2021/07/29 04:54:37;;;;;;;7.70;2.85;;;25.10;92.90;;;;;;5026407;28;20195;-75
2021/07/29 04:57:05;;;;;;;13.07;2.55;;;25.10;93.20;;;;;;5042515;28;20664;-74
2021/07/29 04:59:31;;;;;;;6.25;2.85;;;25.20;93.40;;;;;;5044884;28;20249;-76
2021/07/29 05:01:57;;;;;;;7.40;2.67;;;25.20;93.30;;;;;;5045035;28;20211;-74
2021/07/29 05:04:24;;;;;;;8.07;2.60;;;25.30;93.60;;;;;;5030128;28;20278;-74
2021/07/29 05:06:50;;;;;;;9.20;2.95;;;25.30;92.80;;;;;;5029382;28;20781;-75
2021/07/29 05:09:16;;;;;;;6.28;2.63;;;25.30;93.00;;;;;;5046969;28;20175;-74
2021/07/29 05:11:42;;;;;;;13.65;2.88;;;25.40;92.10;;;;;;5042815;28;20199;-76
2021/07/29 05:14:08;;;;;;;6.82;2.90;;;25.50;92.70;;;;;;5045419;28;20282;-73
2021/07/29 05:16:35;;;;;;;7.18;2.10;;;25.50;90.60;;;;;;5060425;28;20195;-74
2021/07/29 05:19:01;;;;;;;5.40;2.42;;;25.60;92.20;;;;;;5032388;28;20252;-74
2021/07/29 05:21:29;;;;;;;9.15;2.88;;;25.60;91.90;;;;;;5026839;28;20207;-75
2021/07/29 05:23:55;;;;;;;13.35;2.63;;;25.60;91.30;;;;;;5061796;28;20183;-74
2021/07/29 05:26:21;;;;;;;7.45;2.70;;;25.70;92.00;;;;;;5043878;28;20728;-74
2021/07/29 05:28:48;;;;;;;11.32;3.10;;;25.70;92.20;;;;;;5060508;28;20180;-75
2021/07/29 05:31:14;;;;;;;9.60;3.00;;;25.70;93.40;;;;;;5046724;28;20608;-75
2021/07/29 05:33:41;;;;;;;15.55;2.80;;;25.80;91.70;;;;;;5064161;28;20179;-73
2021/07/29 05:36:07;;;;;;;10.85;2.85;;;25.80;91.80;;;;;;5030074;28;20180;-73
2021/07/29 05:38:34;;;;;;;34.85;3.85;;;25.90;91.60;;;;;;5042487;28;20321;-74
2021/07/29 05:41:09;;;;;;;14.30;2.70;;;25.90;89.50;;;;;;5043211;28;20218;-75
2021/07/29 05:43:39;;;;;;;4.43;2.70;;;25.90;91.30;;;;;;5056357;28;20183;-74
2021/07/29 05:46:13;;;;;;;9.27;2.70;;;26.00;89.60;;;;;;5064272;28;20212;-74
2021/07/29 05:48:41;;;;;;;7.68;2.40;;;26.00;87.50;;;;;;5044556;28;20179;-75
2021/07/29 05:51:07;;;;;;;12.20;2.92;;;26.00;90.20;;;;;;5060298;28;20189;-76
2021/07/29 05:53:33;;;;;;;9.20;3.15;;;26.10;89.60;;;;;;5046011;28;20191;-74
2021/07/29 05:56:00;;;;;;;6.82;2.30;;;26.10;88.70;;;;;;5054125;28;20199;-76
2021/07/29 05:58:27;;;;;;;10.32;2.72;;;26.20;87.20;;;;;;5027424;28;20272;-75
2021/07/29 06:00:54;;;;;;;8.73;2.60;;;26.20;88.30;;;;;;5048886;28;20218;-76
2021/07/29 06:03:21;;;;;;;10.05;2.80;;;26.30;91.30;;;;;;5043724;28;20200;-76
2021/07/29 06:05:47;;;;;;;8.43;3.10;;;26.30;90.20;;;;;;5028117;28;20217;-77
2021/07/29 06:08:13;;;;;;;7.07;2.50;;;26.40;89.60;;;;;;5046602;28;20533;-75
2021/07/29 06:10:40;;;;;;;8.07;2.60;;;26.60;85.30;;;;;;5046173;28;20190;-75
2021/07/29 06:13:07;;;;;;;10.88;3.30;;;26.60;87.80;;;;;;5025563;28;20217;-74
2021/07/29 06:15:34;;;;;;;9.52;2.78;;;26.60;88.40;;;;;;5047318;28;20626;-75
2021/07/29 06:18:01;;;;;;;10.43;2.65;;;26.70;88.20;;;;;;5061215;28;20191;-76
2021/07/29 06:20:29;;;;;;;9.35;2.78;;;26.70;90.60;;;;;;5045476;28;20215;-76
2021/07/29 06:22:55;;;;;;;11.80;2.70;;;26.80;83.40;;;;;;5059163;28;20792;-76
2021/07/29 06:25:24;;;;;;;11.90;2.85;;;27.00;83.90;;;;;;5042016;28;20180;-76
2021/07/29 06:27:50;;;;;;;6.65;2.80;;;26.90;88.00;;;;;;5042580;28;20184;-76
2021/07/29 06:30:17;;;;;;;11.18;2.65;;;27.00;87.40;;;;;;5046366;28;20249;-76
2021/07/29 06:32:44;;;;;;;13.82;3.45;;;27.00;85.30;;;;;;5044867;28;20190;-76
2021/07/29 06:35:12;;;;;;;6.22;2.70;;;27.20;77.60;;;;;;5044906;28;20782;-75
2021/07/29 06:37:40;;;;;;;15.13;3.10;;;27.80;78.60;;;;;;5042746;28;20204;-75
2021/07/29 06:40:08;;;;;;;11.45;3.05;;;27.70;81.10;;;;;;5029737;28;20179;-74
2021/07/29 06:42:35;;;;;;;10.15;3.13;;;27.70;82.00;;;;;;5027503;28;20177;-75
2021/07/29 06:45:02;;;;;;;4.75;2.70;;;27.60;75.80;;;;;;5044570;28;20187;-77
2021/07/29 06:47:32;;;;;;;14.30;3.15;;;27.70;79.00;;;;;;5048699;28;20184;-77
2021/07/29 06:49:58;;;;;;;21.75;3.30;;;28.30;70.70;;;;;;5027306;28;20337;-75
2021/07/29 06:52:26;;;;;;;12.35;3.35;;;28.90;75.90;;;;;;5058812;28;20903;-75
2021/07/29 06:54:54;;;;;;;12.95;3.08;;;29.20;79.70;;;;;;5044755;28;20633;-76
2021/07/29 06:57:21;;;;;;;15.10;3.30;;;29.40;87.10;;;;;;5061420;28;20191;-75
2021/07/29 06:59:48;;;;;;;15.23;3.15;;;29.50;87.50;;;;;;5042404;28;20183;-76
2021/07/29 07:02:15;;;;;;;14.18;2.88;;;29.90;86.80;;;;;;5046207;28;20207;-76
2021/07/29 07:04:42;;;;;;;28.08;3.80;;;30.00;86.50;;;;;;5042452;28;20183;-74
2021/07/29 07:07:18;;;;;;;13.40;3.20;;;30.00;86.70;;;;;;5043200;28;20719;-77
2021/07/29 07:09:45;;;;;;;13.25;3.20;;;29.90;87.00;;;;;;5027292;28;20198;-75
2021/07/29 07:12:12;;;;;;;12.52;3.03;;;29.90;87.80;;;;;;5024524;28;20188;-75
2021/07/29 07:14:39;;;;;;;7.72;2.70;;;29.90;88.10;;;;;;5042506;28;20270;-75
2021/07/29 07:17:07;;;;;;;10.95;3.35;;;30.00;88.30;;;;;;5044716;28;20192;-76
2021/07/29 07:19:35;;;;;;;16.52;3.13;;;30.10;87.30;;;;;;5043978;28;20283;-74
2021/07/29 07:22:03;;;;;;;11.05;3.70;;;30.30;87.50;;;;;;5026443;28;20223;-76
2021/07/29 07:24:34;;;;;;;18.48;3.80;;;30.50;87.10;;;;;;5025517;28;20238;-75
2021/07/29 07:27:04;;;;;;;13.70;3.80;;;30.60;89.20;;;;;;5042650;28;20621;-75
2021/07/29 07:29:33;;;;;;;12.57;3.25;;;30.70;90.10;;;;;;5045004;28;20183;-74
2021/07/29 07:32:00;;;;;;;11.65;3.28;;;30.90;89.80;;;;;;5044531;28;20771;-74
2021/07/29 07:34:29;;;;;;;14.02;3.28;;;30.80;88.70;;;;;;5041956;28;20215;-75
2021/07/29 07:36:58;;;;;;;9.50;3.20;;;30.80;91.10;;;;;;5042956;28;20540;-77
2021/07/29 07:39:26;;;;;;;15.50;3.25;;;30.80;91.20;;;;;;5060172;28;20187;-76
2021/07/29 07:41:55;;;;;;;22.10;3.50;;;31.00;91.70;;;;;;5043251;28;20222;-74
2021/07/29 07:44:24;;;;;;;11.55;3.50;;;31.10;91.60;;;;;;5042092;28;20278;-76
2021/07/29 07:46:55;;;;;;;11.68;3.30;;;31.10;92.40;;;;;;5043869;28;20903;-75
2021/07/29 07:49:24;;;;;;;12.05;3.80;;;31.20;93.80;;;;;;5041808;28;20187;-76
2021/07/29 07:51:53;;;;;;;16.92;3.58;;;31.30;94.90;;;;;;5044381;28;20215;-76
2021/07/29 07:54:20;;;;;;;13.85;3.85;;;31.30;95.30;;;;;;5042604;28;20215;-76
2021/07/29 07:56:49;;;;;;;10.70;3.53;;;31.20;95.50;;;;;;5043322;28;20198;-74
2021/07/29 07:59:23;;;;;;;13.85;3.22;;;31.20;96.10;;;;;;5040378;28;20200;-75
2021/07/29 08:01:51;;;;;;;14.10;3.80;;;31.30;95.50;;;;;;5039691;28;20223;-72
2021/07/29 08:04:21;;;;;;;14.88;3.20;;;31.30;95.90;;;;;;5042427;28;20198;-71
2021/07/29 08:06:51;;;;;;;13.18;3.28;;;31.40;96.00;;;;;;5042600;28;20184;-72
2021/07/29 08:09:18;;;;;;;8.77;3.22;;;31.50;96.20;;;;;;5040001;28;20176;-76
2021/07/29 08:11:45;;;;;;;8.38;3.33;;;31.60;95.70;;;;;;5040022;28;20187;-72
2021/07/29 08:14:13;;;;;;;11.20;3.47;;;31.40;96.60;;;;;;5042614;28;20287;-73
2021/07/29 08:16:40;;;;;;;7.72;3.45;;;31.50;96.70;;;;;;5041028;28;20198;-74
2021/07/29 08:19:07;;;;;;;11.07;3.50;;;31.60;96.80;;;;;;5045900;28;20274;-72
2021/07/29 08:21:34;;;;;;;15.73;4.00;;;31.60;97.00;;;;;;5041089;28;20203;-71
2021/07/29 08:24:02;;;;;;;12.98;3.50;;;31.60;97.30;;;;;;5039462;28;20199;-73
2021/07/29 08:26:28;;;;;;;8.63;3.13;;;31.60;97.40;;;;;;5040393;28;20195;-73
2021/07/29 08:28:58;;;;;;;18.10;4.47;;;31.60;96.90;;;;;;5044203;28;20184;-72
2021/07/29 08:31:26;;;;;;;17.60;3.72;;;31.70;97.30;;;;;;5047878;28;20522;-73
2021/07/29 08:33:54;;;;;;;15.27;4.07;;;31.70;97.20;;;;;;5040736;28;20782;-73
2021/07/29 08:36:22;;;;;;;17.27;3.60;;;31.80;96.90;;;;;;5042563;28;20191;-72
2021/07/29 08:38:51;;;;;;;10.07;3.40;;;31.80;96.60;;;;;;5041453;28;20199;-73
2021/07/29 08:41:20;;;;;;;15.48;3.58;;;31.80;96.40;;;;;;5042865;28;20234;-73
2021/07/29 08:43:47;;;;;;;17.23;3.83;;;31.90;96.00;;;;;;5039057;28;20191;-74
2021/07/29 08:46:23;;;;;;;11.45;3.50;;;32.00;95.70;;;;;;5040829;28;20293;-73
2021/07/29 08:48:51;;;;;;;13.43;3.53;;;32.10;96.90;;;;;;5058424;28;20195;-73
2021/07/29 08:51:24;;;;;;;12.25;3.65;;;32.30;97.20;;;;;;5040385;28;20183;-72
2021/07/29 08:53:53;;;;;;;17.85;3.75;;;32.30;97.10;;;;;;5042415;28;20191;-73
2021/07/29 08:56:24;;;;;;;15.20;3.30;;;32.30;98.50;;;;;;5047125;28;20261;-71
2021/07/29 08:58:52;;;;;;;13.02;3.80;;;32.40;98.40;;;;;;5039520;28;20207;-74
2021/07/29 09:01:19;;;;;;;12.52;3.42;;;32.50;99.10;;;;;;5026136;28;20261;-72
2021/07/29 09:03:48;;;;;;;12.48;3.47;;;32.50;98.30;;;;;;5041295;28;20189;-74
2021/07/29 09:06:17;;;;;;;13.88;3.25;;;32.60;98.10;;;;;;5029457;28;20196;-74
2021/07/29 09:08:50;;;;;;;9.73;3.28;;;32.60;96.60;;;;;;5027624;28;20279;-75
2021/07/29 09:11:41;;;;;;;16.90;3.20;;;32.70;97.00;;;;;;5045743;28;20202;-73
2021/07/29 09:14:16;;;;;;;18.65;3.40;;;32.70;94.00;;;;;;5024747;28;20184;-73
2021/07/29 09:17:08;;;;;;;16.67;3.33;;;32.90;93.40;;;;;;5045109;28;20206;-73
2021/07/29 09:19:37;;;;;;;9.73;3.15;;;33.00;93.90;;;;;;5046345;28;20175;-76
2021/07/29 09:22:33;;;;;;;14.80;3.08;;;33.10;88.40;;;;;;5044915;28;20238;-74
2021/07/29 09:25:12;;;;;;;17.23;3.50;;;33.10;87.60;;;;;;5042389;28;20207;-73
2021/07/29 09:27:39;;;;;;;10.23;3.20;;;33.10;79.90;;;;;;5046870;28;20187;-74
2021/07/29 09:30:25;;;;;;;13.95;3.25;;;33.30;82.10;;;;;;5059823;28;20183;-74
2021/07/29 09:33:09;;;;;;;11.93;3.13;;;33.40;76.00;;;;;;5029999;28;20222;-75
2021/07/29 09:35:52;;;;;;;9.55;3.17;;;33.40;77.70;;;;;;5056624;28;20188;-73
2021/07/29 09:38:34;;;;;;;14.77;3.42;;;33.50;77.10;;;;;;5024245;28;20832;-73
2021/07/29 09:41:09;;;;;;;16.42;3.17;;;33.60;76.60;;;;;;5061236;28;20210;-75
2021/07/29 09:43:38;;;;;;;13.10;3.05;;;33.80;74.30;;;;;;5027971;28;20210;-75
2021/07/29 09:46:22;;;;;;;11.45;2.78;;;33.80;71.60;;;;;;5046634;28;20276;-73
2021/07/29 09:48:50;;;;;;;23.35;3.30;;;33.90;64.80;;;;;;5028461;28;20714;-73
2021/07/29 09:51:19;;;;;;;18.27;3.50;;;33.90;70.80;;;;;;5025639;28;20284;-77
2021/07/29 09:53:54;;;;;;;16.15;3.10;;;34.00;72.60;;;;;;5045540;28;20584;-76
2021/07/29 09:56:20;;;;;;;22.17;3.60;;;34.10;69.30;;;;;;5038151;28;20184;-77
2021/07/29 09:58:47;;;;;;;10.27;3.00;;;34.20;71.90;;;;;;5043436;28;20207;-75
2021/07/29 10:01:20;;;;;;;9.07;3.00;;;34.20;72.10;;;;;;5043247;28;20211;-75
2021/07/29 10:03:51;;;;;;;13.27;3.42;;;34.40;69.60;;;;;;5045061;28;20246;-77
2021/07/29 10:06:24;;;;;;;21.75;3.65;;;34.40;75.10;;;;;;5027336;28;20517;-77
2021/07/29 10:09:04;;;;;;;12.57;3.05;;;34.50;69.20;;;;;;5046213;28;20202;-75
2021/07/29 10:11:44;;;;;;;15.60;3.42;;;34.50;64.70;;;;;;5041517;28;20221;-77
2021/07/29 10:14:13;;;;;;;11.68;3.30;;;34.50;69.20;;;;;;5038958;28;20346;-76
2021/07/29 10:16:50;;;;;;;16.33;3.53;;;34.60;76.90;;;;;;5045389;28;20258;-76
2021/07/29 10:19:18;;;;;;;23.38;3.65;;;34.70;72.70;;;;;;5023556;28;20202;-75
2021/07/29 10:21:46;;;;;;;17.95;3.53;;;34.70;73.50;;;;;;5053462;28;20204;-74
2021/07/29 10:24:14;;;;;;;9.18;3.35;;;34.90;76.40;;;;;;5040566;28;20192;-75
2021/07/29 10:27:00;;;;;;;13.68;2.60;;;35.00;77.60;;;;;;5026362;28;20793;-74
2021/07/29 10:29:30;;;;;;;17.08;3.40;;;36.40;75.50;;;;;;5043101;28;20192;-75
2021/07/29 10:32:10;;;;;;;9.60;2.95;;;37.90;72.10;;;;;;5030048;28;20184;-77
2021/07/29 10:34:39;;;;;;;13.88;3.42;;;37.60;70.40;;;;;;5047573;28;20280;-75
2021/07/29 10:37:09;;;;;;;24.98;3.60;;;37.00;71.10;;;;;;5045492;28;20211;-77
2021/07/29 10:40:02;;;;;;;10.55;2.58;;;36.70;67.20;;;;;;5044857;28;20210;-77
2021/07/29 10:42:30;;;;;;;17.63;3.33;;;36.20;71.70;;;;;;5039932;28;20305;-75
2021/07/29 10:45:02;;;;;;;16.08;3.22;;;35.70;73.90;;;;;;5044042;28;20179;-76
2021/07/29 10:47:39;;;;;;;9.75;3.65;;;35.70;72.50;;;;;;5058463;28;20180;-76
2021/07/29 10:50:09;;;;;;;14.50;3.33;;;35.50;71.00;;;;;;5042760;28;20183;-73
2021/07/29 10:52:41;;;;;;;21.83;3.13;;;35.40;70.10;;;;;;5058744;28;20192;-77
2021/07/29 10:55:11;;;;;;;21.30;3.50;;;35.10;72.50;;;;;;5038997;28;20701;-76
2021/07/29 10:57:57;;;;;;;13.05;3.20;;;34.90;73.80;;;;;;5025358;28;20640;-76
2021/07/29 11:00:24;;;;;;;15.80;3.80;;;35.00;75.60;;;;;;5040820;28;20270;-75
2021/07/29 11:02:55;;;;;;;11.55;2.85;;;34.90;73.40;;;;;;5040266;28;20199;-76
2021/07/29 11:05:37;;;;;;;6.65;2.78;;;35.00;72.80;;;;;;5042931;28;20202;-76
2021/07/29 11:08:05;;;;;;;13.68;3.20;;;34.90;68.00;;;;;;5039081;28;20533;-78
2021/07/29 11:10:37;;;;;;;9.73;2.67;;;34.90;67.40;;;;;;5026722;28;20186;-76
2021/07/29 11:13:07;;;;;;;14.95;2.72;;;34.90;63.10;;;;;;5041545;28;20623;-74
2021/07/29 11:15:39;;;;;;;24.17;3.10;;;35.00;59.20;;;;;;5024524;28;20283;-77
2021/07/29 11:18:19;;;;;;;18.10;2.80;;;34.90;60.70;;;;;;5045056;28;20187;-77
2021/07/29 11:20:48;;;;;;;19.30;3.47;;;34.70;63.80;;;;;;5045560;28;20208;-77
2021/07/29 11:23:45;;;;;;;14.40;2.60;;;34.80;61.90;;;;;;5042378;28;20184;-75
2021/07/29 11:26:12;;;;;;;8.35;2.90;;;34.80;63.30;;;;;;5025766;28;20564;-74
2021/07/29 11:28:41;;;;;;;12.05;3.20;;;34.50;59.60;;;;;;5038817;28;20183;-74
2021/07/29 11:31:16;;;;;;;18.65;3.15;;;34.70;60.30;;;;;;5040722;28;20191;-75
2021/07/29 11:33:49;;;;;;;9.45;2.42;;;34.80;60.60;;;;;;5043052;28;20183;-73
2021/07/29 11:36:17;;;;;;;8.20;2.60;;;34.90;60.70;;;;;;5042226;28;20195;-74
2021/07/29 11:38:58;;;;;;;15.75;2.65;;;34.80;57.00;;;;;;5041404;28;20192;-74
2021/07/29 11:41:25;;;;;;;7.80;2.42;;;34.80;60.00;;;;;;5043194;28;20550;-75
2021/07/29 11:43:54;;;;;;;11.25;2.72;;;34.60;55.90;;;;;;5042407;28;20191;-75
2021/07/29 11:46:21;;;;;;;13.57;3.47;;;34.90;58.00;;;;;;5057371;28;20230;-73
2021/07/29 11:49:09;;;;;;;17.65;3.15;;;34.90;54.10;;;;;;5057146;28;20730;-75
2021/07/29 11:51:36;;;;;;;16.35;2.88;;;34.80;53.60;;;;;;5025756;28;20190;-73
2021/07/29 11:54:03;;;;;;;13.00;3.10;;;34.80;54.10;;;;;;5041243;28;20306;-75
2021/07/29 11:56:30;;;;;;;14.68;2.97;;;34.80;53.00;;;;;;5041849;28;20195;-74
2021/07/29 11:59:04;;;;;;;12.10;2.50;;;34.80;53.40;;;;;;5041589;28;20207;-74
2021/07/29 12:01:33;;;;;;;8.60;2.75;;;34.90;54.40;;;;;;5044733;28;20207;-76
2021/07/29 12:04:04;;;;;;;15.20;2.85;;;34.80;53.70;;;;;;5026156;28;20186;-74
2021/07/29 12:06:31;;;;;;;9.40;2.45;;;34.90;53.60;;;;;;5060994;28;20237;-74
2021/07/29 12:08:59;;;;;;;13.57;3.00;;;34.70;56.10;;;;;;5027270;28;20203;-75
2021/07/29 12:11:31;;;;;;;15.38;3.10;;;35.00;54.70;;;;;;5024684;28;20202;-74
2021/07/29 12:13:59;;;;;;;17.77;3.30;;;35.10;52.10;;;;;;5026963;28;20179;-75
2021/07/29 12:16:51;;;;;;;15.93;3.03;;;35.20;53.20;;;;;;5044214;28;20246;-74
2021/07/29 12:19:20;;;;;;;7.00;2.80;;;35.00;52.70;;;;;;5041082;28;20213;-74
2021/07/29 12:21:50;;;;;;;10.60;3.58;;;34.90;54.00;;;;;;5040977;28;20254;-74
2021/07/29 12:24:17;;;;;;;9.18;2.95;;;34.90;53.50;;;;;;5023181;28;20183;-74
2021/07/29 12:27:10;;;;;;;9.65;2.85;;;35.10;52.40;;;;;;5047206;28;20184;-76
2021/07/29 12:29:47;;;;;;;15.02;3.30;;;34.70;55.00;;;;;;5026166;28;20183;-75
2021/07/29 12:32:31;;;;;;;11.95;2.90;;;34.80;50.90;;;;;;5060293;28;20663;-74
2021/07/29 12:34:59;;;;;;;10.98;2.78;;;34.70;56.40;;;;;;5060939;28;20183;-75
2021/07/29 12:37:29;;;;;;;10.43;2.60;;;34.80;52.40;;;;;;5049557;28;20207;-74
2021/07/29 12:39:56;;;;;;;12.52;2.80;;;34.90;50.60;;;;;;5047734;28;20179;-74
2021/07/29 12:42:30;;;;;;;16.63;3.53;;;34.90;51.70;;;;;;5047579;28;20207;-76
2021/07/29 12:44:59;;;;;;;14.57;2.80;;;34.80;49.70;;;;;;5054583;28;20195;-77
2021/07/29 12:47:32;;;;;;;10.40;2.92;;;34.80;51.10;;;;;;5042222;28;20211;-74
2021/07/29 12:49:58;;;;;;;8.88;2.80;;;34.70;51.30;;;;;;5049916;28;20265;-75